EKVJ/STA METAR and TAF weather

Enter ICAO airport designator
Station Type Date Time Source
EKVJ METAR 2019/12/13 14:50 UTC NOAA

EKVJ 131450Z 11015KT 9999 FEW015 02/00 Q0981


Station Type Date Time Source
EKVJ Decoded METAR 2019/12/13 14:50 UTC NOAA

Stauning Lufthavn, Denmark (EKVJ) 56-00N 008-21E 5M
Dec 13, 2019 - 09:50 AM EST / 2019.12.13 1450 UTC
Wind: from the ESE (110 degrees) at 17 MPH (15 KT):0
Visibility: greater than 7 mile(s):0
Sky conditions: mostly clear
Temperature: 35 F (2 C)
Windchill: 24 F (-4 C):1
Dew Point: 32 F (0 C)
Relative Humidity: 86%
Pressure (altimeter): 28.97 in. Hg (0981 hPa)
ob: EKVJ 131450Z 11015KT 9999 FEW015 02/00 Q0981
cycle: 15

Station Type Date Time Source
EKVJ TAF UTC NOAA

Error!

Example: see airport list